createdAt,value
2023-05-06T12:27:35.595Z,18.34
2023-05-06T12:32:56.879Z,17.43
2023-05-06T12:38:11.717Z,17.10
2023-05-06T12:43:13.927Z,17.28
2023-05-06T12:48:16.167Z,16.23
2023-05-06T12:53:33.856Z,15.64
2023-05-06T12:58:35.818Z,15.45
2023-05-06T13:03:40.656Z,15.73
2023-05-06T13:08:42.752Z,16.95
2023-05-06T13:13:44.518Z,18.35
2023-05-06T13:18:46.408Z,19.47
2023-05-06T13:23:48.277Z,20.05
2023-05-06T13:28:50.161Z,20.93
2023-05-06T13:33:52.047Z,20.97
2023-05-06T13:38:53.914Z,21.49
2023-05-06T13:43:55.792Z,21.47
2023-05-06T13:48:57.483Z,21.63
2023-05-06T13:53:59.184Z,22.18
2023-05-06T13:59:02.556Z,21.89
2023-05-06T14:04:04.863Z,22.01
2023-05-06T14:09:07.554Z,22.69
2023-05-06T14:14:09.633Z,22.93
2023-05-06T14:19:11.490Z,23.36
2023-05-06T14:24:13.309Z,23.44
2023-05-06T14:29:15.123Z,23.56
2023-05-06T14:34:17.039Z,23.61
2023-05-06T14:39:19.224Z,23.31
2023-05-06T14:44:21.919Z,23.78
2023-05-06T14:49:24.611Z,23.89
2023-05-06T14:54:33.356Z,24.59
2023-05-06T14:59:36.054Z,23.88
2023-05-06T15:04:38.047Z,24.37
2023-05-06T15:09:39.922Z,24.13
2023-05-06T15:14:43.009Z,24.54
2023-05-06T15:19:47.290Z,24.62
2023-05-06T15:24:49.202Z,24.65
2023-05-06T15:29:51.111Z,24.57
2023-05-06T15:34:53.017Z,24.54
2023-05-06T15:39:54.935Z,25.48
2023-05-06T15:44:56.978Z,25.26
2023-05-06T15:49:59.620Z,25.57
2023-05-06T15:55:01.837Z,25.82
2023-05-06T16:00:04.660Z,25.91
2023-05-06T16:05:07.147Z,26.69
2023-05-06T16:10:09.473Z,26.96
2023-05-06T16:15:11.724Z,27.10
2023-05-06T16:20:13.900Z,27.19
2023-05-06T16:25:16.097Z,27.49
2023-05-06T16:30:18.151Z,27.33
2023-05-06T16:35:20.883Z,27.76
2023-05-06T16:40:22.798Z,28.00
2023-05-06T16:45:26.267Z,28.46
2023-05-06T16:50:28.269Z,28.43
2023-05-06T16:55:30.212Z,28.95
2023-05-06T17:00:32.101Z,29.41
2023-05-06T17:05:34.789Z,29.49
2023-05-06T17:10:38.656Z,29.79
2023-05-06T17:15:41.309Z,30.15
2023-05-06T17:20:54.274Z,30.76
2023-05-06T17:25:57.563Z,31.01
2023-05-06T17:30:59.556Z,31.20
2023-05-06T17:36:01.731Z,31.41
2023-05-06T17:41:03.781Z,31.69
2023-05-06T17:46:06.414Z,32.21
2023-05-06T17:51:08.493Z,32.20
2023-05-06T17:56:10.477Z,32.38
2023-05-06T18:01:13.908Z,32.97
2023-05-06T18:06:15.963Z,33.07
2023-05-06T18:11:18.153Z,32.88
2023-05-06T18:16:20.271Z,33.36
2023-05-06T18:21:22.429Z,33.36
2023-05-06T18:26:42.767Z,33.76
2023-05-06T18:31:45.809Z,33.48
2023-05-06T18:36:47.922Z,33.73
2023-05-06T18:41:49.900Z,33.84
2023-05-06T18:46:51.676Z,34.44
2023-05-06T18:51:54.289Z,34.44
2023-05-06T18:56:56.266Z,34.49
2023-05-06T19:01:58.210Z,34.54
2023-05-06T19:07:00.041Z,34.83
2023-05-06T19:12:01.786Z,35.10
2023-05-06T19:17:04.716Z,35.24
2023-05-06T19:22:07.014Z,35.63
2023-05-06T19:27:09.055Z,35.95
2023-05-06T19:32:11.037Z,36.15
2023-05-06T19:37:12.912Z,36.23
2023-05-06T19:42:15.024Z,36.56
2023-05-06T19:47:17.101Z,36.82
2023-05-06T19:52:19.164Z,37.14
2023-05-06T19:57:21.266Z,36.96
2023-05-06T20:02:25.961Z,37.18
2023-05-06T20:07:35.207Z,37.40
2023-05-06T20:12:37.380Z,37.80
2023-05-06T20:17:39.929Z,38.19
2023-05-06T20:22:41.873Z,38.85
2023-05-06T20:27:44.304Z,39.22
2023-05-06T20:32:46.422Z,39.69
2023-05-06T20:37:48.472Z,40.18
2023-05-06T20:42:50.572Z,40.33
2023-05-06T20:47:52.548Z,40.74
2023-05-06T20:52:54.590Z,41.30
2023-05-06T20:57:56.736Z,41.56
2023-05-06T21:02:59.099Z,42.16
2023-05-06T21:08:01.171Z,42.51
2023-05-06T21:13:03.029Z,42.70
2023-05-06T21:18:04.913Z,42.94
2023-05-06T21:23:07.021Z,43.24
2023-05-06T21:28:08.991Z,43.48
2023-05-06T21:33:10.762Z,43.74
2023-05-06T21:38:12.699Z,43.88
2023-05-06T21:43:14.930Z,44.03
2023-05-06T21:48:16.900Z,44.27
2023-05-06T21:53:19.316Z,44.37
2023-05-06T21:58:21.380Z,44.75
2023-05-06T22:03:23.638Z,45.06
2023-05-06T22:08:25.679Z,45.46
2023-05-06T22:13:28.570Z,45.64
2023-05-06T22:18:30.537Z,46.00
2023-05-06T22:23:32.517Z,46.03
2023-05-06T22:28:34.594Z,46.20
2023-05-06T22:33:36.568Z,46.17
2023-05-06T22:38:38.591Z,46.39
2023-05-06T22:43:40.438Z,46.51
2023-05-06T22:48:42.306Z,46.57
2023-05-06T22:53:44.702Z,46.84
2023-05-06T22:58:46.714Z,47.15
2023-05-06T23:03:48.626Z,47.52
2023-05-06T23:08:50.480Z,47.90
2023-05-06T23:13:52.523Z,48.45
2023-05-06T23:18:54.610Z,48.87
2023-05-06T23:23:56.481Z,49.12
2023-05-06T23:28:58.261Z,49.73
2023-05-06T23:34:00.136Z,49.98
2023-05-06T23:39:02.118Z,50.42
2023-05-06T23:44:04.716Z,50.98
2023-05-06T23:49:06.594Z,51.25
2023-05-06T23:54:08.582Z,51.83
2023-05-06T23:59:10.525Z,51.92
